首页
METAR-TAF:

METAR-TAF

机场 :

锡诺普, 土耳其

纬度: 42-00-57N, 经度: 035-03-59E, 海拔: 7米

当前天气观测

该预报发布于1小时和3分钟前的18:50 UTC
风速9节,风向南转西南
温度 18°C
湿度 24%
气压 1008 hPa
能见度10公里或以上
1500米以下无云,无积雨云

METAR: LTCM 261850Z 21009KT CAVOK 18/M03 Q1008

时间: 22:53 (19:53 UTC)

预报

该预报发布于3小时和13分钟前的16:40 UTC
预报有效从26日的 18点(UTC)到 27日的 03点(UTC)
风速11节,风向
能见度10公里或以上
1500米以下无云,无积雨云

TAF: LTCM 261640Z 2618/2703 18011KT CAVOK

超过4000个机场的气象观测和天气预报(METAR&TAF报告)。

可查询的气象台以黄色和红色小点在地图上表示。

将鼠标移到小点上方,可查看气象台名称。

然后点击查看天气观测和预报。

如需切换地图:点击带黑十字的绿色按钮放大地图;点击带横线的绿色按钮缩小地图;或者点击绿色箭头查看邻近地区的地图。


METAR-TAF: